createdAt,value
2023-05-15T00:02:01.501Z,100.0
2023-05-15T00:07:01.495Z,100.0
2023-05-15T00:12:01.489Z,100.0
2023-05-15T00:17:01.497Z,100.0
2023-05-15T00:22:01.504Z,100.0
2023-05-15T00:27:01.499Z,100.0
2023-05-15T00:32:01.500Z,100.0
2023-05-15T00:37:01.547Z,100.0
2023-05-15T00:42:02.376Z,100.0
2023-05-15T00:47:01.643Z,100.0
2023-05-15T00:57:01.520Z,100.0
2023-05-15T01:02:01.603Z,100.0
2023-05-15T01:07:01.534Z,100.0
2023-05-15T01:12:01.536Z,100.0
2023-05-15T01:17:01.540Z,100.0
2023-05-15T01:22:01.521Z,100.0
2023-05-15T01:27:01.531Z,100.0
2023-05-15T01:32:01.543Z,100.0
2023-05-15T01:37:01.547Z,100.0
2023-05-15T01:42:01.522Z,100.0
2023-05-15T01:52:01.525Z,100.0
2023-05-15T01:57:01.550Z,100.0
2023-05-15T02:02:01.620Z,100.0
2023-05-15T02:07:01.539Z,100.0
2023-05-15T02:12:01.532Z,100.0
2023-05-15T02:17:01.542Z,100.0
2023-05-15T02:22:01.549Z,100.0
2023-05-15T02:27:01.552Z,100.0
2023-05-15T02:32:01.651Z,100.0
2023-05-15T02:37:01.541Z,100.0
2023-05-15T02:42:01.564Z,100.0
2023-05-15T02:47:01.545Z,100.0
2023-05-15T02:52:01.575Z,100.0
2023-05-15T02:57:01.548Z,100.0
2023-05-15T03:02:01.561Z,100.0
2023-05-15T03:07:01.569Z,100.0
2023-05-15T03:12:01.543Z,100.0
2023-05-15T03:17:01.617Z,100.0
2023-05-15T03:22:01.564Z,100.0
2023-05-15T03:27:01.561Z,100.0
2023-05-15T03:32:01.562Z,100.0
2023-05-15T03:37:01.567Z,100.0
2023-05-15T03:42:01.566Z,100.0
2023-05-15T03:47:01.671Z,100.0
2023-05-15T03:52:01.564Z,100.0
2023-05-15T03:57:01.572Z,100.0
2023-05-15T04:02:05.426Z,100.0
2023-05-15T04:07:01.581Z,100.0
2023-05-15T04:12:01.593Z,100.0
2023-05-15T04:17:01.594Z,100.0
2023-05-15T04:22:01.566Z,100.0
2023-05-15T04:27:01.670Z,100.0
2023-05-15T04:32:01.614Z,100.0
2023-05-15T04:37:01.581Z,100.0
2023-05-15T04:42:01.584Z,100.0
2023-05-15T04:47:01.581Z,100.0
2023-05-15T04:52:01.585Z,100.0
2023-05-15T04:57:01.595Z,100.0
2023-05-15T05:02:01.829Z,100.0
2023-05-15T05:07:01.595Z,100.0
2023-05-15T05:12:01.600Z,100.0
2023-05-15T05:17:01.600Z,100.0
2023-05-15T05:22:01.604Z,100.0
2023-05-15T05:27:01.600Z,100.0
2023-05-15T05:32:01.697Z,100.0
2023-05-15T05:37:01.608Z,100.0
2023-05-15T05:42:01.610Z,100.0
2023-05-15T05:47:01.655Z,100.0
2023-05-15T05:52:01.607Z,100.0
2023-05-15T05:57:01.619Z,100.0
2023-05-15T06:02:01.673Z,100.0
2023-05-15T06:07:01.611Z,100.0
2023-05-15T06:12:01.635Z,100.0
2023-05-15T06:17:01.671Z,100.0
2023-05-15T06:22:01.624Z,100.0
2023-05-15T06:27:01.628Z,100.0
2023-05-15T06:32:01.624Z,100.0
2023-05-15T06:37:01.640Z,100.0
2023-05-15T06:42:01.752Z,98.5
2023-05-15T06:47:01.840Z,96.0
2023-05-15T06:52:01.659Z,94.0
2023-05-15T06:57:01.644Z,93.5
2023-05-15T07:02:01.723Z,93.0
2023-05-15T07:07:01.658Z,89.5
2023-05-15T07:12:01.688Z,85.5
2023-05-15T07:17:01.706Z,86.0
2023-05-15T07:22:03.303Z,84.5
2023-05-15T07:27:01.665Z,84.0
2023-05-15T07:32:01.717Z,80.5
2023-05-15T07:37:01.684Z,80.5
2023-05-15T07:42:01.674Z,79.0
2023-05-15T07:47:01.676Z,79.0
2023-05-15T07:52:01.678Z,77.0
2023-05-15T07:57:01.733Z,77.5
2023-05-15T08:02:01.722Z,75.0
2023-05-15T08:07:01.682Z,74.0
2023-05-15T08:12:01.689Z,72.5
2023-05-15T08:17:01.683Z,74.0
2023-05-15T08:22:01.692Z,74.5
2023-05-15T08:27:01.698Z,72.5
2023-05-15T08:32:01.698Z,71.5
2023-05-15T08:37:01.704Z,68.0
2023-05-15T08:42:01.701Z,67.5
2023-05-15T08:47:01.746Z,67.0
2023-05-15T08:52:01.700Z,67.5
2023-05-15T08:57:01.705Z,66.5
2023-05-15T09:02:01.784Z,65.0
2023-05-15T09:07:01.744Z,65.5
2023-05-15T09:12:01.722Z,68.0
2023-05-15T09:17:01.808Z,67.5
2023-05-15T09:22:01.724Z,65.0
2023-05-15T09:27:01.733Z,64.5
2023-05-15T09:32:01.749Z,65.5
2023-05-15T09:37:01.745Z,63.0
2023-05-15T09:42:01.739Z,62.5
2023-05-15T09:47:01.785Z,60.5
2023-05-15T09:52:01.765Z,60.0
2023-05-15T09:57:01.746Z,58.5
2023-05-15T10:02:01.906Z,58.5
2023-05-15T10:07:01.765Z,59.0
2023-05-15T10:12:01.751Z,60.0
2023-05-15T10:17:01.769Z,60.5
2023-05-15T10:22:01.843Z,57.5
2023-05-15T10:27:01.773Z,58.5
2023-05-15T10:32:01.767Z,56.0
2023-05-15T10:37:01.783Z,55.0
2023-05-15T10:42:01.763Z,56.5
2023-05-15T10:47:01.837Z,54.0
2023-05-15T10:52:01.793Z,56.0
2023-05-15T10:57:01.812Z,58.0
2023-05-15T11:02:01.796Z,61.0
2023-05-15T11:07:01.799Z,61.5
2023-05-15T11:12:01.826Z,62.5
2023-05-15T11:17:01.796Z,64.0
2023-05-15T11:22:01.766Z,65.5
2023-05-15T11:27:01.776Z,66.5
2023-05-15T11:32:01.773Z,66.5
2023-05-15T11:37:01.775Z,67.0
2023-05-15T11:42:01.787Z,68.0
2023-05-15T11:47:01.867Z,68.0
2023-05-15T11:52:01.783Z,68.0
2023-05-15T11:57:01.803Z,69.0
2023-05-15T12:02:01.829Z,71.5
2023-05-15T12:07:03.024Z,70.5
2023-05-15T12:12:01.791Z,70.0
2023-05-15T12:17:01.862Z,71.5
2023-05-15T12:22:01.798Z,73.0
2023-05-15T12:27:01.798Z,73.5
2023-05-15T12:32:01.870Z,74.0
2023-05-15T12:37:01.802Z,75.0
2023-05-15T12:42:01.821Z,77.5
2023-05-15T12:47:01.830Z,78.0
2023-05-15T12:52:01.802Z,78.5
2023-05-15T12:57:02.229Z,79.0
2023-05-15T13:02:01.815Z,77.5
2023-05-15T13:07:01.813Z,79.5
2023-05-15T13:12:01.811Z,79.0
2023-05-15T13:17:01.821Z,80.0
2023-05-15T13:22:01.815Z,80.0
2023-05-15T13:27:01.813Z,80.0
2023-05-15T13:32:01.817Z,78.0
2023-05-15T13:37:01.824Z,77.0
2023-05-15T13:42:01.830Z,75.0
2023-05-15T13:47:01.842Z,74.5
2023-05-15T13:52:01.827Z,76.5
2023-05-15T13:57:01.840Z,76.5
2023-05-15T14:02:01.834Z,76.0
2023-05-15T14:07:01.836Z,76.0
2023-05-15T14:12:01.843Z,74.5
2023-05-15T14:17:01.898Z,74.5
2023-05-15T14:22:01.851Z,72.5
2023-05-15T14:27:01.880Z,71.0
2023-05-15T14:32:01.872Z,72.0
2023-05-15T14:37:01.863Z,72.5
2023-05-15T14:42:01.854Z,73.5
2023-05-15T14:47:01.860Z,74.0
2023-05-15T14:52:01.880Z,75.0
2023-05-15T14:57:01.854Z,76.0
2023-05-15T15:02:02.023Z,76.5
2023-05-15T15:07:01.849Z,78.0
2023-05-15T15:12:01.849Z,78.5
2023-05-15T15:17:01.899Z,79.0
2023-05-15T15:22:01.860Z,80.5
2023-05-15T15:27:01.861Z,81.0
2023-05-15T15:32:01.915Z,81.5
2023-05-15T15:37:01.869Z,82.0
2023-05-15T15:42:03.447Z,80.5
2023-05-15T15:47:01.864Z,80.0
2023-05-15T15:52:01.866Z,80.5
2023-05-15T15:57:01.883Z,80.0
2023-05-15T16:02:01.872Z,79.5
2023-05-15T16:07:01.882Z,80.0
2023-05-15T16:12:01.880Z,80.5
2023-05-15T16:17:02.389Z,81.5
2023-05-15T16:22:01.882Z,83.0
2023-05-15T16:27:01.879Z,84.0
2023-05-15T16:32:01.941Z,83.0
2023-05-15T16:37:01.885Z,83.5
2023-05-15T16:42:01.879Z,84.0
2023-05-15T16:47:01.888Z,84.0
2023-05-15T16:52:01.888Z,85.0
2023-05-15T16:57:01.890Z,85.5
2023-05-15T17:02:01.994Z,85.5
2023-05-15T17:07:01.893Z,86.5
2023-05-15T17:12:01.880Z,86.5
2023-05-15T17:17:01.899Z,86.0
2023-05-15T17:22:01.904Z,85.5
2023-05-15T17:27:01.890Z,85.0
2023-05-15T17:32:01.948Z,85.5
2023-05-15T17:37:01.908Z,86.5
2023-05-15T17:42:01.900Z,85.5
2023-05-15T17:47:01.902Z,86.0
2023-05-15T17:52:01.965Z,86.5
2023-05-15T17:57:01.919Z,86.5
2023-05-15T18:02:02.089Z,88.0
2023-05-15T18:07:01.917Z,88.0
2023-05-15T18:12:01.941Z,89.5
2023-05-15T18:17:01.911Z,90.0
2023-05-15T18:22:01.913Z,91.0
2023-05-15T18:27:01.926Z,92.5
2023-05-15T18:32:02.037Z,94.0
2023-05-15T18:37:01.917Z,95.0
2023-05-15T18:42:01.920Z,96.0
2023-05-15T18:47:01.938Z,97.5
2023-05-15T18:57:01.927Z,98.0
2023-05-15T19:02:01.942Z,98.0
2023-05-15T19:07:01.934Z,98.0
2023-05-15T19:12:01.937Z,99.0
2023-05-15T19:17:02.051Z,99.0
2023-05-15T19:22:01.933Z,98.5
2023-05-15T19:27:01.952Z,98.5
2023-05-15T19:32:01.976Z,100.0
2023-05-15T19:37:01.939Z,100.0
2023-05-15T19:42:01.944Z,100.0
2023-05-15T19:47:01.945Z,100.0
2023-05-15T19:52:01.948Z,100.0
2023-05-15T19:57:01.954Z,100.0
2023-05-15T20:02:02.084Z,100.0
2023-05-15T20:07:01.944Z,100.0
2023-05-15T20:12:01.942Z,100.0
2023-05-15T20:17:01.960Z,100.0
2023-05-15T20:22:01.963Z,100.0
2023-05-15T20:27:01.945Z,100.0
2023-05-15T20:32:02.068Z,100.0
2023-05-15T20:37:01.954Z,100.0
2023-05-15T20:42:01.952Z,100.0
2023-05-15T20:47:01.964Z,100.0
2023-05-15T20:52:01.962Z,100.0
2023-05-15T20:57:01.960Z,100.0
2023-05-15T21:02:01.965Z,100.0
2023-05-15T21:07:01.971Z,100.0
2023-05-15T21:12:01.974Z,100.0
2023-05-15T21:17:01.989Z,100.0
2023-05-15T21:22:01.969Z,100.0
2023-05-15T21:27:01.982Z,100.0
2023-05-15T21:32:01.989Z,100.0
2023-05-15T21:37:01.975Z,100.0
2023-05-15T21:42:01.978Z,100.0
2023-05-15T21:47:01.981Z,99.5
2023-05-15T21:52:01.979Z,100.0
2023-05-15T21:57:01.989Z,100.0
2023-05-15T22:02:02.006Z,99.0
2023-05-15T22:07:01.972Z,100.0
2023-05-15T22:12:01.989Z,100.0
2023-05-15T22:17:01.986Z,100.0
2023-05-15T22:22:02.010Z,100.0
2023-05-15T22:27:01.982Z,100.0
2023-05-15T22:32:02.114Z,100.0
2023-05-15T22:37:01.988Z,100.0
2023-05-15T22:42:01.986Z,99.5
2023-05-15T22:47:01.992Z,99.0
2023-05-15T22:52:02.002Z,98.5
2023-05-15T22:57:01.999Z,98.5
2023-05-15T23:02:01.996Z,97.5
2023-05-15T23:07:02.003Z,98.0
2023-05-15T23:12:02.001Z,97.5
2023-05-15T23:17:02.026Z,96.5
2023-05-15T23:22:02.010Z,95.5
2023-05-15T23:27:02.013Z,96.0
2023-05-15T23:32:02.010Z,96.0
2023-05-15T23:37:02.022Z,95.5
2023-05-15T23:42:02.016Z,95.0
2023-05-15T23:47:02.068Z,95.0
2023-05-15T23:52:02.021Z,94.0
2023-05-15T23:57:02.025Z,94.0
